createdAt,value
2022-08-28T00:00:35.256Z,21.43
2022-08-28T00:03:03.342Z,21.38
2022-08-28T00:05:33.729Z,21.37
2022-08-28T00:08:03.232Z,21.34
2022-08-28T00:10:31.383Z,21.30
2022-08-28T00:12:59.553Z,21.28
2022-08-28T00:15:28.644Z,21.29
2022-08-28T00:17:56.613Z,21.28
2022-08-28T00:20:24.836Z,21.27
2022-08-28T00:22:55.511Z,21.25
2022-08-28T00:25:25.829Z,21.23
2022-08-28T00:27:52.869Z,21.22
2022-08-28T00:30:22.585Z,21.20
2022-08-28T00:32:50.624Z,21.10
2022-08-28T00:35:18.835Z,21.15
2022-08-28T00:37:48.235Z,21.10
2022-08-28T00:40:18.677Z,21.07
2022-08-28T00:42:58.120Z,21.05
2022-08-28T00:45:26.689Z,21.01
2022-08-28T00:47:54.630Z,20.94
2022-08-28T00:50:25.510Z,20.90
2022-08-28T00:52:53.857Z,20.91
2022-08-28T00:55:23.034Z,20.92
2022-08-28T00:57:52.353Z,20.91
2022-08-28T01:00:23.912Z,20.90
2022-08-28T01:02:52.037Z,20.86
2022-08-28T01:05:20.069Z,20.83
2022-08-28T01:07:48.065Z,20.82
2022-08-28T01:10:18.269Z,20.81
2022-08-28T01:12:46.491Z,20.78
2022-08-28T01:15:17.492Z,20.76
2022-08-28T01:17:48.435Z,20.75
2022-08-28T01:20:17.880Z,20.71
2022-08-28T01:22:49.100Z,20.67
2022-08-28T01:25:20.623Z,20.61
2022-08-28T01:27:48.688Z,20.54
2022-08-28T01:30:17.847Z,20.47
2022-08-28T01:32:47.316Z,20.45
2022-08-28T01:35:17.024Z,20.44
2022-08-28T01:37:45.093Z,20.45
2022-08-28T01:40:14.151Z,20.45
2022-08-28T01:42:44.008Z,20.43
2022-08-28T01:45:13.688Z,20.38
2022-08-28T01:47:41.801Z,20.31
2022-08-28T01:50:10.626Z,20.30
2022-08-28T01:52:40.665Z,20.27
2022-08-28T01:55:09.306Z,20.23
2022-08-28T01:57:37.338Z,20.19
2022-08-28T02:00:08.442Z,20.16
2022-08-28T02:02:36.488Z,20.15
2022-08-28T02:05:04.629Z,20.17
2022-08-28T02:07:32.612Z,20.15
2022-08-28T02:10:00.599Z,20.15
2022-08-28T02:12:28.673Z,20.14
2022-08-28T02:14:56.688Z,20.12
2022-08-28T02:17:26.105Z,20.12
2022-08-28T02:19:54.218Z,20.10
2022-08-28T02:22:22.238Z,20.10
2022-08-28T02:24:50.206Z,20.10
2022-08-28T02:27:18.192Z,20.10
2022-08-28T02:29:46.951Z,20.10
2022-08-28T02:32:14.908Z,20.10
2022-08-28T02:34:44.328Z,20.09
2022-08-28T02:37:13.374Z,20.07
2022-08-28T02:39:41.447Z,20.04
2022-08-28T02:42:09.532Z,20.02
2022-08-28T02:44:37.554Z,20.00
2022-08-28T02:47:05.814Z,19.99
2022-08-28T02:49:36.139Z,19.99
2022-08-28T02:52:06.842Z,19.99
2022-08-28T02:54:34.851Z,19.97
2022-08-28T02:57:02.832Z,19.95
2022-08-28T02:59:32.129Z,19.92
2022-08-28T03:02:00.900Z,19.91
2022-08-28T03:04:28.882Z,19.91
2022-08-28T03:06:56.884Z,19.89
2022-08-28T03:09:26.260Z,19.86
2022-08-28T03:11:54.717Z,19.89
2022-08-28T03:14:22.792Z,19.91
2022-08-28T03:16:50.802Z,19.92
2022-08-28T03:19:18.825Z,19.92
2022-08-28T03:21:46.777Z,19.94
2022-08-28T03:24:15.229Z,19.93
2022-08-28T03:26:45.179Z,19.93
2022-08-28T03:29:13.160Z,19.98
2022-08-28T03:31:41.165Z,19.94
2022-08-28T03:34:09.619Z,20.05
2022-08-28T03:36:37.579Z,20.08
2022-08-28T03:39:06.551Z,20.09
2022-08-28T03:41:35.215Z,20.10
2022-08-28T03:44:05.077Z,20.12
2022-08-28T03:46:33.861Z,20.14
2022-08-28T03:49:02.003Z,20.17
2022-08-28T03:51:33.008Z,20.15
2022-08-28T03:54:01.146Z,20.15
2022-08-28T03:56:30.088Z,20.14
2022-08-28T03:58:59.103Z,20.15
2022-08-28T04:01:28.916Z,20.19
2022-08-28T04:03:57.196Z,20.22
2022-08-28T04:06:25.200Z,20.24
2022-08-28T04:08:53.215Z,20.27
2022-08-28T04:11:21.244Z,20.30
2022-08-28T04:13:49.245Z,20.33
2022-08-28T04:16:19.449Z,20.36
2022-08-28T04:18:49.550Z,20.39
2022-08-28T04:21:18.423Z,20.42
2022-08-28T04:23:46.673Z,20.45
2022-08-28T04:26:15.589Z,20.48
2022-08-28T04:28:43.909Z,20.50
2022-08-28T04:31:11.990Z,20.53
2022-08-28T04:33:40.252Z,20.56
2022-08-28T04:36:12.274Z,20.57
2022-08-28T04:38:43.737Z,20.58
2022-08-28T04:41:13.013Z,20.63
2022-08-28T04:43:40.985Z,20.67
2022-08-28T04:46:11.371Z,20.67
2022-08-28T04:48:39.600Z,20.72
2022-08-28T04:51:10.521Z,20.75
2022-08-28T04:53:38.628Z,20.75
2022-08-28T04:56:07.983Z,20.78
2022-08-28T04:58:35.991Z,20.79
2022-08-28T05:01:06.742Z,20.71
2022-08-28T05:03:35.345Z,20.79
2022-08-28T05:06:04.063Z,20.78
2022-08-28T05:08:33.467Z,20.79
2022-08-28T05:11:10.820Z,20.79
2022-08-28T05:13:38.905Z,20.78
2022-08-28T05:16:07.338Z,20.77
2022-08-28T05:18:35.831Z,20.77
2022-08-28T05:21:03.817Z,20.79
2022-08-28T05:23:33.351Z,20.82
2022-08-28T05:26:01.353Z,20.86
2022-08-28T05:28:29.442Z,20.88
2022-08-28T05:30:57.450Z,20.93
2022-08-28T05:33:25.811Z,20.97
2022-08-28T05:35:53.822Z,21.01
2022-08-28T05:38:21.817Z,20.96
2022-08-28T05:40:51.237Z,21.09
2022-08-28T05:43:19.491Z,21.12
2022-08-28T05:45:47.530Z,21.16
2022-08-28T05:48:16.386Z,21.21
2022-08-28T05:50:47.391Z,21.26
2022-08-28T05:53:15.578Z,21.30
2022-08-28T05:55:43.568Z,21.33
2022-08-28T05:58:30.746Z,21.37
2022-08-28T06:01:08.653Z,21.40
2022-08-28T06:03:37.476Z,21.31
2022-08-28T06:06:05.827Z,21.44
2022-08-28T06:08:33.970Z,21.50
2022-08-28T06:11:04.041Z,21.53
2022-08-28T06:13:33.459Z,21.57
2022-08-28T06:16:02.364Z,21.61
2022-08-28T06:18:30.722Z,21.68
2022-08-28T06:21:02.492Z,21.72
2022-08-28T06:23:30.516Z,21.75
2022-08-28T06:25:58.515Z,21.80
2022-08-28T06:28:27.316Z,21.82
2022-08-28T06:31:18.542Z,21.88
2022-08-28T06:33:46.154Z,21.92
2022-08-28T06:36:14.185Z,21.97
2022-08-28T06:38:46.559Z,21.97
2022-08-28T06:41:15.756Z,22.04
2022-08-28T06:43:43.800Z,22.10
2022-08-28T06:46:13.209Z,22.14
2022-08-28T06:48:41.315Z,22.22
2022-08-28T06:51:10.169Z,22.29
2022-08-28T06:53:38.597Z,22.39
2022-08-28T06:56:08.578Z,22.45
2022-08-28T06:58:37.153Z,22.54
2022-08-28T07:01:06.575Z,22.59
2022-08-28T07:03:35.979Z,22.63
2022-08-28T07:06:12.582Z,22.70
2022-08-28T07:08:40.844Z,22.72
2022-08-28T07:11:13.245Z,22.77
2022-08-28T07:13:41.501Z,22.80
2022-08-28T07:16:09.578Z,22.87
2022-08-28T07:18:39.020Z,22.91
2022-08-28T07:21:12.131Z,22.95
2022-08-28T07:23:40.762Z,23.02
2022-08-28T07:26:10.056Z,23.07
2022-08-28T07:28:38.301Z,23.08
2022-08-28T07:31:07.862Z,23.16
2022-08-28T07:33:36.081Z,23.23
2022-08-28T07:36:07.369Z,23.31
2022-08-28T07:38:35.397Z,23.41
2022-08-28T07:41:03.715Z,23.48
2022-08-28T07:43:48.965Z,23.57
2022-08-28T07:46:17.094Z,23.65
2022-08-28T07:48:48.046Z,23.74
2022-08-28T07:51:17.449Z,23.81
2022-08-28T07:53:45.423Z,23.87
2022-08-28T07:56:13.381Z,23.94
2022-08-28T07:58:41.610Z,24.00
2022-08-28T08:01:09.677Z,24.06
2022-08-28T08:03:37.757Z,24.14
2022-08-28T08:06:06.122Z,24.23
2022-08-28T08:08:35.576Z,24.28
2022-08-28T08:11:05.280Z,24.34
2022-08-28T08:13:33.917Z,24.42
2022-08-28T08:16:03.470Z,24.40
2022-08-28T08:18:31.596Z,24.52
2022-08-28T08:20:59.634Z,24.56
2022-08-28T08:23:27.807Z,24.60
2022-08-28T08:25:58.069Z,24.63
2022-08-28T08:28:26.059Z,24.69
2022-08-28T08:31:04.142Z,24.74
2022-08-28T08:33:32.513Z,24.78
2022-08-28T08:36:00.598Z,24.68
2022-08-28T08:38:29.960Z,24.95
2022-08-28T08:40:59.972Z,25.06
2022-08-28T08:43:28.336Z,25.15
2022-08-28T08:45:56.563Z,25.27
2022-08-28T08:48:27.941Z,25.38
2022-08-28T08:50:56.060Z,25.48
2022-08-28T08:53:28.248Z,25.44
2022-08-28T08:55:57.052Z,25.57
2022-08-28T08:58:28.959Z,25.62
2022-08-28T09:01:01.288Z,25.66
2022-08-28T09:03:39.205Z,25.92
2022-08-28T09:06:17.278Z,26.07
2022-08-28T09:08:48.750Z,26.37
2022-08-28T09:11:26.868Z,26.56
2022-08-28T09:14:00.891Z,26.78
2022-08-28T09:16:30.231Z,26.89
2022-08-28T09:18:58.955Z,26.98
2022-08-28T09:21:29.553Z,27.01
2022-08-28T09:23:58.428Z,27.09
2022-08-28T09:26:26.524Z,27.06
2022-08-28T09:29:03.720Z,27.18
2022-08-28T09:31:33.389Z,27.20
2022-08-28T09:34:22.899Z,27.24
2022-08-28T09:36:51.068Z,27.21
2022-08-28T09:39:20.199Z,27.17
2022-08-28T09:42:30.090Z,27.19
2022-08-28T09:45:02.048Z,27.12
2022-08-28T09:47:49.228Z,27.20
2022-08-28T09:50:26.205Z,27.23
2022-08-28T09:52:55.014Z,27.27
2022-08-28T09:55:27.000Z,27.33
2022-08-28T09:57:55.586Z,27.36
2022-08-28T10:00:25.009Z,27.41
2022-08-28T10:02:54.983Z,27.48
2022-08-28T10:05:31.623Z,27.66
2022-08-28T10:08:02.120Z,27.78
2022-08-28T10:10:34.230Z,27.89
2022-08-28T10:13:06.051Z,27.96
2022-08-28T10:15:43.530Z,28.04
2022-08-28T10:18:33.027Z,28.09
2022-08-28T10:21:05.256Z,28.08
2022-08-28T10:23:38.178Z,28.12
2022-08-28T10:26:16.517Z,28.15
2022-08-28T10:28:47.393Z,28.13
2022-08-28T10:31:19.998Z,28.18
2022-08-28T10:33:58.933Z,28.27
2022-08-28T10:36:34.629Z,28.41
2022-08-28T10:39:09.137Z,28.58
2022-08-28T10:41:39.876Z,28.74
2022-08-28T10:44:07.870Z,28.88
2022-08-28T10:46:40.105Z,29.03
2022-08-28T10:49:09.677Z,29.15
2022-08-28T10:51:43.611Z,29.20
2022-08-28T10:54:16.113Z,29.23
2022-08-28T10:56:45.140Z,29.21
2022-08-28T10:59:13.318Z,29.19
2022-08-28T11:01:43.109Z,29.14
2022-08-28T11:04:12.374Z,29.17
2022-08-28T11:06:41.703Z,29.14
2022-08-28T11:09:26.286Z,29.15
2022-08-28T11:12:00.987Z,29.19
2022-08-28T11:14:32.023Z,29.28
2022-08-28T11:17:02.920Z,29.30
2022-08-28T11:19:52.309Z,29.37
2022-08-28T11:22:21.686Z,29.40
2022-08-28T11:24:55.969Z,29.48
2022-08-28T11:27:31.068Z,29.53
2022-08-28T11:30:32.941Z,29.63
2022-08-28T11:33:10.082Z,29.67
2022-08-28T11:35:51.773Z,29.80
2022-08-28T11:38:55.648Z,29.87
2022-08-28T11:41:26.659Z,29.93
2022-08-28T11:44:28.595Z,30.03
2022-08-28T11:46:58.925Z,30.06
2022-08-28T11:49:46.205Z,30.12
2022-08-28T11:52:29.758Z,30.16
2022-08-28T11:55:02.069Z,30.18
2022-08-28T11:57:40.972Z,30.24
2022-08-28T12:00:10.387Z,30.31
2022-08-28T12:03:13.698Z,30.41
2022-08-28T12:05:54.294Z,30.48
2022-08-28T12:09:11.713Z,30.55
2022-08-28T12:11:50.378Z,30.56
2022-08-28T12:15:07.768Z,30.59
2022-08-28T12:17:44.846Z,30.70
2022-08-28T12:20:14.503Z,30.84
2022-08-28T12:22:46.457Z,31.02
2022-08-28T12:25:20.717Z,31.16
2022-08-28T12:27:48.733Z,31.27
2022-08-28T12:30:25.183Z,31.31
2022-08-28T12:32:54.286Z,31.31
2022-08-28T12:35:23.702Z,31.23
2022-08-28T12:38:02.600Z,31.22
2022-08-28T12:40:33.349Z,31.16
2022-08-28T12:43:02.651Z,31.13
2022-08-28T12:45:32.167Z,31.15
2022-08-28T12:48:02.382Z,31.16
2022-08-28T12:50:33.212Z,31.25
2022-08-28T12:53:04.068Z,31.26
2022-08-28T12:55:32.743Z,31.20
2022-08-28T12:58:00.816Z,31.17
2022-08-28T13:00:32.096Z,31.12
2022-08-28T13:03:00.146Z,30.99
2022-08-28T13:05:39.655Z,30.92
2022-08-28T13:08:10.166Z,30.84
2022-08-28T13:10:39.244Z,30.79
2022-08-28T13:13:08.344Z,30.69
2022-08-28T13:15:55.349Z,30.65
2022-08-28T13:18:47.429Z,30.64
2022-08-28T13:21:33.949Z,30.56
2022-08-28T13:24:27.250Z,30.53
2022-08-28T13:27:03.432Z,30.48
2022-08-28T13:29:31.430Z,30.46
2022-08-28T13:32:00.309Z,30.39
2022-08-28T13:34:29.164Z,30.36
2022-08-28T13:36:59.734Z,30.34
2022-08-28T13:39:30.091Z,30.37
2022-08-28T13:41:59.741Z,30.34
2022-08-28T13:44:34.966Z,30.34
2022-08-28T13:47:03.613Z,30.35
2022-08-28T13:49:32.162Z,30.31
2022-08-28T13:52:01.057Z,30.26
2022-08-28T13:54:31.302Z,30.21
2022-08-28T13:57:00.207Z,30.17
2022-08-28T13:59:30.543Z,30.20
2022-08-28T14:02:17.162Z,30.25
2022-08-28T14:04:45.344Z,30.17
2022-08-28T14:07:13.459Z,30.28
2022-08-28T14:09:42.895Z,30.28
2022-08-28T14:12:12.094Z,30.25
2022-08-28T14:14:40.166Z,30.22
2022-08-28T14:17:08.364Z,30.24
2022-08-28T14:19:36.806Z,30.24
2022-08-28T14:22:05.005Z,30.24
2022-08-28T14:24:33.155Z,30.22
2022-08-28T14:27:02.649Z,30.15
2022-08-28T14:29:31.505Z,30.07
2022-08-28T14:31:59.985Z,29.99
2022-08-28T14:34:28.031Z,29.93
2022-08-28T14:36:56.170Z,29.88
2022-08-28T14:39:25.081Z,29.84
2022-08-28T14:41:53.420Z,29.77
2022-08-28T14:44:23.413Z,29.73
2022-08-28T14:46:52.668Z,29.72
2022-08-28T14:49:25.257Z,29.75
2022-08-28T14:51:54.217Z,29.72
2022-08-28T14:54:23.756Z,29.71
2022-08-28T14:56:52.341Z,29.63
2022-08-28T14:59:24.433Z,29.55
2022-08-28T15:01:53.332Z,29.51
2022-08-28T15:04:23.748Z,29.50
2022-08-28T15:06:51.959Z,29.47
2022-08-28T15:09:20.288Z,29.43
2022-08-28T15:11:48.299Z,29.40
2022-08-28T15:14:16.319Z,29.43
2022-08-28T15:16:46.599Z,29.44
2022-08-28T15:19:16.048Z,29.50
2022-08-28T15:21:45.309Z,29.53
2022-08-28T15:24:13.936Z,29.55
2022-08-28T15:26:41.956Z,29.59
2022-08-28T15:29:11.917Z,29.67
2022-08-28T15:31:41.278Z,29.68
2022-08-28T15:34:13.381Z,29.67
2022-08-28T15:36:41.872Z,29.67
2022-08-28T15:39:27.266Z,29.67
2022-08-28T15:41:55.437Z,29.69
2022-08-28T15:44:23.535Z,29.72
2022-08-28T15:46:52.969Z,29.69
2022-08-28T15:49:23.863Z,29.75
2022-08-28T15:51:52.601Z,29.73
2022-08-28T15:54:20.741Z,29.73
2022-08-28T15:56:49.638Z,29.77
2022-08-28T15:59:18.802Z,29.79
2022-08-28T16:01:46.904Z,29.75
2022-08-28T16:04:15.974Z,29.73
2022-08-28T16:06:46.013Z,29.70
2022-08-28T16:09:14.280Z,29.72
2022-08-28T16:11:43.821Z,29.74
2022-08-28T16:14:12.178Z,29.75
2022-08-28T16:16:40.322Z,29.79
2022-08-28T16:19:14.559Z,29.82
2022-08-28T16:21:42.695Z,29.85
2022-08-28T16:24:12.100Z,29.94
2022-08-28T16:26:40.249Z,30.06
2022-08-28T16:29:08.369Z,30.07
2022-08-28T16:31:37.000Z,29.98
2022-08-28T16:34:05.028Z,29.90
2022-08-28T16:36:33.445Z,29.84
2022-08-28T16:39:03.939Z,29.85
2022-08-28T16:41:33.547Z,29.89
2022-08-28T16:44:01.510Z,29.97
2022-08-28T16:46:44.310Z,30.19
2022-08-28T16:49:12.430Z,30.61
2022-08-28T16:51:40.530Z,31.03
2022-08-28T16:54:08.672Z,31.54
2022-08-28T16:56:38.263Z,31.96
2022-08-28T16:59:10.144Z,32.12
2022-08-28T17:01:40.881Z,32.02
2022-08-28T17:04:10.770Z,31.79
2022-08-28T17:06:39.415Z,31.52
2022-08-28T17:09:07.427Z,31.21
2022-08-28T17:11:35.699Z,30.95
2022-08-28T17:14:05.098Z,30.67
2022-08-28T17:16:33.250Z,30.46
2022-08-28T17:19:01.256Z,30.24
2022-08-28T17:21:46.733Z,30.00
2022-08-28T17:24:14.778Z,29.75
2022-08-28T17:26:43.748Z,29.50
2022-08-28T17:29:13.147Z,29.30
2022-08-28T17:31:41.453Z,29.12
2022-08-28T17:34:10.506Z,28.95
2022-08-28T17:36:38.715Z,28.82
2022-08-28T17:39:11.966Z,28.71
2022-08-28T17:41:41.223Z,28.57
2022-08-28T17:44:09.496Z,28.45
2022-08-28T17:46:38.941Z,28.31
2022-08-28T17:49:07.478Z,28.21
2022-08-28T17:51:43.234Z,28.10
2022-08-28T17:54:13.132Z,28.00
2022-08-28T17:56:41.318Z,27.91
2022-08-28T17:59:09.460Z,27.83
2022-08-28T18:01:39.046Z,27.72
2022-08-28T18:04:07.177Z,27.61
2022-08-28T18:06:35.191Z,27.52
2022-08-28T18:09:04.028Z,27.45
2022-08-28T18:11:32.081Z,27.39
2022-08-28T18:14:00.802Z,27.30
2022-08-28T18:16:31.516Z,27.21
2022-08-28T18:19:01.324Z,27.10
2022-08-28T18:21:29.457Z,27.02
2022-08-28T18:23:57.784Z,26.93
2022-08-28T18:26:25.767Z,26.84
2022-08-28T18:28:53.834Z,26.75
2022-08-28T18:31:21.984Z,26.66
2022-08-28T18:33:50.241Z,26.57
2022-08-28T18:36:19.662Z,26.43
2022-08-28T18:38:47.841Z,26.44
2022-08-28T18:41:15.900Z,26.37
2022-08-28T18:43:43.970Z,26.33
2022-08-28T18:46:14.145Z,26.03
2022-08-28T18:48:42.678Z,26.16
2022-08-28T18:51:11.771Z,26.07
2022-08-28T18:53:42.357Z,25.99
2022-08-28T18:56:12.473Z,25.89
2022-08-28T18:58:40.774Z,25.80
2022-08-28T19:01:09.416Z,25.71
2022-08-28T19:03:37.568Z,25.60
2022-08-28T19:06:06.414Z,25.52
2022-08-28T19:08:35.614Z,25.42
2022-08-28T19:11:08.848Z,25.34
2022-08-28T19:13:37.076Z,25.24
2022-08-28T19:16:06.219Z,25.17
2022-08-28T19:18:34.371Z,25.07
2022-08-28T19:21:06.971Z,24.99
2022-08-28T19:23:35.140Z,24.56
2022-08-28T19:26:03.250Z,24.78
2022-08-28T19:28:32.698Z,24.70
2022-08-28T19:31:01.043Z,24.63
2022-08-28T19:33:29.045Z,24.55
2022-08-28T19:35:57.111Z,24.45
2022-08-28T19:38:25.147Z,24.37
2022-08-28T19:40:58.947Z,24.31
2022-08-28T19:43:31.136Z,24.23
2022-08-28T19:46:18.395Z,24.16
2022-08-28T19:48:48.359Z,24.10
2022-08-28T19:51:17.712Z,24.02
2022-08-28T19:53:56.845Z,23.96
2022-08-28T19:56:27.292Z,23.92
2022-08-28T19:58:57.645Z,23.86
2022-08-28T20:01:29.653Z,23.82
2022-08-28T20:03:58.228Z,23.77
2022-08-28T20:06:26.348Z,23.71
2022-08-28T20:08:54.680Z,23.63
2022-08-28T20:11:25.333Z,23.60
2022-08-28T20:13:59.077Z,23.57
2022-08-28T20:16:28.799Z,23.54
2022-08-28T20:18:57.780Z,23.52
2022-08-28T20:21:36.849Z,23.46
2022-08-28T20:24:06.139Z,23.42
2022-08-28T20:26:34.160Z,23.36
2022-08-28T20:29:02.121Z,23.28
2022-08-28T20:31:31.578Z,23.18
2022-08-28T20:33:59.691Z,23.11
2022-08-28T20:36:27.674Z,23.06
2022-08-28T20:38:55.697Z,23.03
2022-08-28T20:41:23.832Z,23.00
2022-08-28T20:43:51.856Z,22.99
2022-08-28T20:46:23.171Z,23.00
2022-08-28T20:48:52.625Z,23.00
2022-08-28T20:51:41.521Z,22.98
2022-08-28T20:54:09.540Z,22.97
2022-08-28T20:56:37.612Z,22.95
2022-08-28T20:59:05.642Z,22.96
2022-08-28T21:01:33.876Z,22.93
2022-08-28T21:04:03.613Z,22.89
2022-08-28T21:06:32.193Z,22.82
2022-08-28T21:09:00.228Z,22.76
2022-08-28T21:11:28.256Z,22.73
2022-08-28T21:13:56.527Z,22.72
2022-08-28T21:16:24.652Z,22.69
2022-08-28T21:19:12.125Z,22.67
2022-08-28T21:21:42.276Z,22.65
2022-08-28T21:24:11.336Z,22.66
2022-08-28T21:26:42.612Z,22.67
2022-08-28T21:29:10.841Z,22.68
2022-08-28T21:31:40.851Z,22.68
2022-08-28T21:34:09.756Z,22.69
2022-08-28T21:36:38.102Z,22.64
2022-08-28T21:39:07.543Z,22.59
2022-08-28T21:41:35.576Z,22.54
2022-08-28T21:44:03.770Z,22.49
2022-08-28T21:46:31.968Z,22.44
2022-08-28T21:49:00.009Z,22.40
2022-08-28T21:51:28.472Z,22.37
2022-08-28T21:53:57.645Z,22.37
2022-08-28T21:56:27.898Z,22.34
2022-08-28T21:58:56.172Z,22.28
2022-08-28T22:01:25.964Z,22.24
2022-08-28T22:03:54.526Z,22.20
2022-08-28T22:06:22.927Z,22.17
2022-08-28T22:08:51.200Z,22.14
2022-08-28T22:11:24.730Z,22.11
2022-08-28T22:13:54.627Z,22.01
2022-08-28T22:16:22.827Z,22.04
2022-08-28T22:18:50.995Z,22.00
2022-08-28T22:21:38.830Z,21.96
2022-08-28T22:24:07.213Z,21.89
2022-08-28T22:26:35.468Z,21.83
2022-08-28T22:29:05.931Z,21.78
2022-08-28T22:31:34.207Z,21.71
2022-08-28T22:34:04.739Z,21.64
2022-08-28T22:36:34.963Z,21.57
2022-08-28T22:39:03.051Z,21.54
2022-08-28T22:41:31.504Z,21.50
2022-08-28T22:43:59.850Z,21.41
2022-08-28T22:46:29.407Z,21.38
2022-08-28T22:48:57.832Z,21.35
2022-08-28T22:51:25.816Z,21.33
2022-08-28T22:53:54.381Z,21.31
2022-08-28T22:56:22.827Z,21.29
2022-08-28T22:58:50.843Z,21.27
2022-08-28T23:01:19.819Z,21.23
2022-08-28T23:03:50.855Z,21.22
2022-08-28T23:06:18.946Z,21.18
2022-08-28T23:08:47.113Z,21.17
2022-08-28T23:11:15.179Z,21.15
2022-08-28T23:13:43.225Z,21.14
2022-08-28T23:16:11.773Z,21.12
2022-08-28T23:19:06.715Z,20.91
2022-08-28T23:21:29.478Z,21.08
2022-08-28T23:23:57.629Z,21.06
2022-08-28T23:26:25.861Z,21.06
2022-08-28T23:28:53.940Z,21.07
2022-08-28T23:31:22.004Z,21.06
2022-08-28T23:33:51.086Z,20.86
2022-08-28T23:36:19.611Z,20.98
2022-08-28T23:38:49.063Z,20.98
2022-08-28T23:41:17.177Z,20.96
2022-08-28T23:43:45.213Z,20.96
2022-08-28T23:46:16.201Z,20.94
2022-08-28T23:48:45.205Z,20.90
2022-08-28T23:51:13.850Z,20.81
2022-08-28T23:53:42.332Z,20.52
2022-08-28T23:56:12.768Z,20.75
2022-08-28T23:58:43.189Z,20.73
